Time;durP1;ratioP1;P1;durP2;ratioP2;P2;SDS_P1;SDS_P2;PMS_P1;PMS_P2;Temp;Humidity;BMP_temperature;BMP_pressure;BME280_temperature;BME280_humidity;BME280_pressure;Samples;Min_cycle;Max_cycle;Signal;HPM_P1;HPM_P2
2024/01/16 00:04:32;;;;;;;3.87;2.23;;;;;;;0.22;100.00;97027.91;3116578;22;20110;-89
2024/01/16 00:06:26;;;;;;;7.30;2.92;;;;;;;0.15;100.00;97045.13;3088233;23;20513;-89
2024/01/16 00:08:21;;;;;;;4.05;1.90;;;;;;;0.23;100.00;97033.06;3125507;22;20027;-92
2024/01/16 00:09:56;;;;;;;4.13;1.83;;;;;;;0.31;100.00;97043.28;3103648;22;20544;-90
2024/01/16 00:11:12;;;;;;;6.13;2.40;;;;;;;0.21;100.00;97042.50;3195933;22;20498;-93
2024/01/16 00:12:30;;;;;;;6.68;2.28;;;;;;;0.31;100.00;97045.84;3232223;22;20592;-90
2024/01/16 00:13:46;;;;;;;4.13;2.13;;;;;;;0.25;100.00;97046.75;3215303;23;20011;-91
2024/01/16 00:15:02;;;;;;;7.22;2.70;;;;;;;0.19;100.00;97033.09;3203546;23;20370;-92
2024/01/16 00:16:18;;;;;;;5.25;1.83;;;;;;;0.37;100.00;97040.63;3222309;22;20010;-91
2024/01/16 00:17:35;;;;;;;3.67;2.28;;;;;;;0.21;100.00;97044.22;3215939;23;20460;-91
2024/01/16 00:18:51;;;;;;;4.28;2.47;;;;;;;0.15;100.00;97050.28;3230232;22;20090;-91
2024/01/16 00:46:46;;;;;;;2.88;1.85;;;;;;;0.06;100.00;97053.78;3241099;22;20007;-92
2024/01/16 00:48:02;;;;;;;3.92;1.95;;;;;;;0.08;100.00;97056.34;3217989;23;20367;-92
2024/01/16 00:49:18;;;;;;;3.08;2.20;;;;;;;0.00;100.00;97053.84;3205191;23;20035;-93
2024/01/16 00:50:34;;;;;;;1.83;1.33;;;;;;;0.09;100.00;97053.75;3203634;23;20064;-91
2024/01/16 00:51:51;;;;;;;5.95;1.90;;;;;;;0.12;100.00;97051.13;3231638;22;20066;-91
2024/01/16 00:53:07;;;;;;;2.13;1.33;;;;;;;0.15;100.00;97050.28;3224860;23;20306;-92
2024/01/16 00:54:24;;;;;;;2.38;1.50;;;;;;;0.11;100.00;97046.88;3222366;22;20011;-92
2024/01/16 00:55:40;;;;;;;5.20;2.17;;;;;;;0.09;100.00;97045.19;3215219;23;20004;-90
2024/01/16 00:56:59;;;;;;;4.68;2.90;;;;;;;0.01;100.00;97052.97;3221917;22;20015;-92
2024/01/16 00:58:15;;;;;;;3.30;1.95;;;;;;;0.01;100.00;97060.69;3215978;23;20035;-90
2024/01/16 00:59:31;;;;;;;4.97;2.55;;;;;;;-0.06;100.00;97066.75;3205438;23;20048;-91
2024/01/16 01:00:47;;;;;;;3.40;2.20;;;;;;;-0.06;100.00;97079.59;3221229;22;20042;-91
2024/01/16 01:02:03;;;;;;;3.75;2.55;;;;;;;-0.07;100.00;97070.19;3214802;23;20070;-90
2024/01/16 01:03:19;;;;;;;4.07;2.33;;;;;;;-0.11;100.00;97077.06;3205973;23;20103;-91
2024/01/16 01:04:35;;;;;;;3.50;2.13;;;;;;;-0.08;100.00;97081.34;3205921;23;20452;-91
2024/01/16 01:05:51;;;;;;;2.15;1.45;;;;;;;0.13;100.00;97075.19;3205591;23;20364;-92
2024/01/16 01:07:08;;;;;;;6.22;2.22;;;;;;;-0.16;100.00;97074.53;3205768;23;20437;-93
2024/01/16 01:08:24;;;;;;;3.60;1.77;;;;;;;-0.02;100.00;97078.72;3222348;22;20024;-91
2024/01/16 01:09:40;;;;;;;4.07;2.20;;;;;;;-0.03;100.00;97079.59;3230739;22;20026;-92
2024/01/16 01:10:57;;;;;;;4.47;2.60;;;;;;;-0.09;100.00;97074.50;3215031;23;20008;-92
2024/01/16 01:12:13;;;;;;;3.10;1.95;;;;;;;-0.05;100.00;97084.75;3205889;23;20012;-93
2024/01/16 01:13:29;;;;;;;3.22;2.05;;;;;;;-0.03;100.00;97074.44;3221594;22;20016;-92
2024/01/16 01:14:45;;;;;;;4.60;2.53;;;;;;;-0.01;100.00;97083.84;3215580;23;20016;-91
2024/01/16 01:16:01;;;;;;;4.10;1.73;;;;;;;-0.03;100.00;97095.03;3221459;22;20016;-92
2024/01/16 01:17:17;;;;;;;3.97;2.05;;;;;;;0.05;100.00;97085.53;3215857;23;20019;-92
2024/01/16 01:18:33;;;;;;;4.47;2.45;;;;;;;-0.16;100.00;97081.41;3206213;23;20023;-93
2024/01/16 01:19:49;;;;;;;3.45;2.28;;;;;;;-0.12;100.00;97085.66;3221007;22;20016;-92
2024/01/16 01:21:05;;;;;;;2.83;1.42;;;;;;;-0.04;100.00;97093.31;3230746;22;20018;-92
2024/01/16 01:22:21;;;;;;;5.13;1.77;;;;;;;-0.06;100.00;97089.91;3215437;23;20276;-92
2024/01/16 01:23:37;;;;;;;3.35;2.17;;;;;;;-0.04;100.00;97088.16;3221763;22;20069;-92
2024/01/16 01:24:53;;;;;;;4.15;2.55;;;;;;;-0.24;100.00;97080.59;3225358;23;20468;-93
2024/01/16 01:26:13;;;;;;;1.58;1.30;;;;;;;-0.06;100.00;97093.34;3232483;22;20078;-91
2024/01/16 01:27:29;;;;;;;4.07;2.20;;;;;;;-0.15;100.00;97088.25;3224365;23;20016;-92
2024/01/16 01:28:46;;;;;;;7.55;2.47;;;;;;;-0.24;100.00;97080.59;3206019;23;20016;-91
2024/01/16 01:30:02;;;;;;;6.10;2.60;;;;;;;-0.22;100.00;97092.59;3206075;23;20035;-92
2024/01/16 01:31:18;;;;;;;4.38;2.30;;;;;;;-0.16;100.00;97095.09;3205222;23;20015;-91
2024/01/16 01:32:34;;;;;;;4.80;1.80;;;;;;;-0.10;100.00;97093.38;3205649;23;20012;-92
2024/01/16 01:33:50;;;;;;;4.28;2.53;;;;;;;-0.27;100.00;97081.50;3222681;22;20440;-91
2024/01/16 01:35:07;;;;;;;3.63;2.03;;;;;;;-0.07;100.00;97096.78;3233018;22;20122;-91
2024/01/16 01:36:23;;;;;;;5.55;2.35;;;;;;;-0.15;100.00;97101.13;3231978;22;20090;-92
2024/01/16 01:37:40;;;;;;;4.28;2.70;;;;;;;-0.27;100.00;97098.63;3216154;23;20011;-92
2024/01/16 01:38:56;;;;;;;3.35;2.47;;;;;;;-0.07;100.00;97095.91;3223347;22;20067;-92
2024/01/16 01:40:12;;;;;;;5.45;2.45;;;;;;;-0.24;100.00;97096.03;3216614;23;20016;-92
2024/01/16 01:41:28;;;;;;;4.07;2.28;;;;;;;-0.04;100.00;97095.88;3233206;22;20011;-93
2024/01/16 01:42:45;;;;;;;6.93;3.22;;;;;;;-0.18;100.00;97090.84;3242570;22;20435;-91
2024/01/16 01:44:01;;;;;;;3.47;2.20;;;;;;;-0.20;100.00;97090.84;3242481;22;20022;-92
2024/01/16 01:45:17;;;;;;;5.97;2.75;;;;;;;-0.22;100.00;97097.72;3226526;23;20044;-94
2024/01/16 01:46:40;;;;;;;3.33;2.20;;;;;;;0.05;100.00;97093.25;3222975;22;20016;-92
2024/01/16 01:47:56;;;;;;;5.70;2.45;;;;;;;-0.23;100.00;97102.88;3243070;22;20003;-92
2024/01/16 01:49:13;;;;;;;2.72;1.65;;;;;;;-0.09;100.00;97105.38;3225816;23;20062;-92
2024/01/16 01:50:29;;;;;;;4.28;2.60;;;;;;;-0.08;100.00;97102.75;3223046;22;20011;-92
2024/01/16 01:51:45;;;;;;;4.40;2.25;;;;;;;-0.06;100.00;97107.91;3216131;23;20048;-93
2024/01/16 01:53:03;;;;;;;3.58;1.80;;;;;;;-0.01;100.00;97114.72;3207196;23;20023;-91
2024/01/16 01:54:20;;;;;;;5.88;2.53;;;;;;;-0.13;100.00;97113.97;3223406;22;20007;-92
2024/01/16 01:55:37;;;;;;;5.47;2.70;;;;;;;-0.16;100.00;97095.09;3216341;23;20016;-93
2024/01/16 01:56:53;;;;;;;5.03;2.13;;;;;;;-0.02;100.00;97107.88;3208019;23;20043;-92
2024/01/16 01:58:10;;;;;;;2.90;1.30;;;;;;;0.10;100.00;97114.66;3223148;22;20065;-93
2024/01/16 01:59:26;;;;;;;4.28;2.42;;;;;;;0.02;100.00;97115.56;3233230;22;20035;-93
2024/01/16 02:00:42;;;;;;;4.53;2.22;;;;;;;0.05;100.00;97118.13;3216030;23;20054;-93
2024/01/16 02:01:59;;;;;;;4.15;2.17;;;;;;;-0.06;100.00;97116.50;3207234;23;20015;-92
2024/01/16 02:03:15;;;;;;;4.95;2.58;;;;;;;-0.07;100.00;97113.91;3222455;22;20016;-93
2024/01/16 02:04:31;;;;;;;5.38;2.33;;;;;;;0.00;100.00;97113.03;3216412;23;20014;-94
2024/01/16 02:05:49;;;;;;;5.18;2.47;;;;;;;0.07;100.00;97124.97;3220649;22;20111;-94
2024/01/16 02:07:05;;;;;;;4.28;2.15;;;;;;;-0.01;100.00;97124.16;3216988;23;20525;-92
2024/01/16 02:08:22;;;;;;;3.22;2.17;;;;;;;-0.08;100.00;97119.94;3222845;22;20050;-93
2024/01/16 02:09:38;;;;;;;4.03;1.75;;;;;;;0.10;100.00;97126.69;3215996;23;20016;-94
2024/01/16 02:10:54;;;;;;;3.15;1.67;;;;;;;0.01;100.00;97130.19;3216131;23;20000;-92
2024/01/16 02:12:10;;;;;;;6.30;2.30;;;;;;;0.04;100.00;97137.00;3200781;23;20047;-93
2024/01/16 02:13:26;;;;;;;3.70;1.95;;;;;;;0.18;100.00;97136.91;3200965;23;20009;-93
2024/01/16 02:14:42;;;;;;;5.85;2.28;;;;;;;0.01;100.00;97145.63;3206917;23;20020;-93
2024/01/16 02:15:58;;;;;;;3.08;1.92;;;;;;;0.19;100.00;97136.03;3198044;23;20078;-94
2024/01/16 02:17:15;;;;;;;4.47;2.40;;;;;;;0.08;100.00;97136.13;3206865;23;20054;-92
2024/01/16 02:18:31;;;;;;;2.53;1.30;;;;;;;0.25;100.00;97143.69;3200758;23;20016;-94
2024/01/16 02:19:47;;;;;;;2.58;1.52;;;;;;;0.34;100.00;97137.63;3191538;23;20015;-93
2024/01/16 02:21:06;;;;;;;4.10;1.90;;;;;;;0.08;100.00;97141.28;3192208;23;20099;-92
2024/01/16 02:22:28;;;;;;;3.95;2.22;;;;;;;0.04;100.00;97148.16;3192181;23;20012;-93
2024/01/16 02:23:46;;;;;;;3.40;2.50;;;;;;;-0.01;100.00;97157.59;3225394;22;20037;-93
2024/01/16 02:25:03;;;;;;;4.03;1.95;;;;;;;0.11;100.00;97154.97;3194783;23;20025;-92
2024/01/16 02:26:19;;;;;;;3.17;2.20;;;;;;;0.10;100.00;97150.69;3182728;23;20023;-94
2024/01/16 02:27:35;;;;;;;6.13;1.83;;;;;;;0.16;100.00;97148.94;3192030;23;20008;-93
2024/01/16 02:28:52;;;;;;;3.22;2.05;;;;;;;0.04;100.00;97152.44;3206151;23;20004;-93
2024/01/16 02:30:08;;;;;;;4.68;3.10;;;;;;;-0.11;100.00;97145.69;3200747;23;20016;-92
2024/01/16 02:31:24;;;;;;;4.43;2.78;;;;;;;0.00;100.00;97146.47;3191220;23;20009;-93
2024/01/16 02:32:40;;;;;;;4.97;2.22;;;;;;;0.18;100.00;97160.91;3191331;23;20040;-92
2024/01/16 02:33:56;;;;;;;3.28;2.00;;;;;;;0.17;100.00;97159.22;3191393;23;20047;-93
2024/01/16 02:35:12;;;;;;;4.15;2.38;;;;;;;0.04;100.00;97157.59;3191441;23;20448;-93
2024/01/16 02:36:32;;;;;;;3.08;1.63;;;;;;;0.20;100.00;97169.47;3191588;23;20013;-93
2024/01/16 02:37:48;;;;;;;4.82;2.47;;;;;;;0.08;100.00;97157.56;3192734;23;20512;-92
2024/01/16 02:39:06;;;;;;;3.53;2.15;;;;;;;0.12;100.00;97177.25;3191177;23;20013;-93
2024/01/16 02:40:22;;;;;;;2.35;1.33;;;;;;;0.37;100.00;97171.09;3208389;23;20531;-93
2024/01/16 02:41:38;;;;;;;4.18;2.60;;;;;;;0.05;100.00;97162.72;3200678;23;20066;-92
2024/01/16 02:42:54;;;;;;;6.40;2.70;;;;;;;0.06;100.00;97182.44;3207274;23;20012;-93
2024/01/16 02:44:10;;;;;;;6.35;2.97;;;;;;;0.06;100.00;97161.88;3216846;23;20020;-93
2024/01/16 02:45:26;;;;;;;3.63;1.92;;;;;;;0.18;100.00;97173.78;3216198;23;20012;-93
2024/01/16 02:46:42;;;;;;;6.22;2.90;;;;;;;0.09;100.00;97172.13;3200035;23;20357;-93
2024/01/16 02:47:58;;;;;;;4.85;2.97;;;;;;;0.08;100.00;97185.88;3191402;23;20111;-93
2024/01/16 02:49:14;;;;;;;5.00;2.50;;;;;;;0.07;100.00;97176.44;3207557;23;20012;-93
2024/01/16 02:50:30;;;;;;;2.92;1.50;;;;;;;0.30;100.00;97182.28;3232607;22;20008;-92
2024/01/16 02:51:46;;;;;;;3.08;2.38;;;;;;;0.22;100.00;97184.91;3209207;23;20008;-93
2024/01/16 02:53:02;;;;;;;5.00;2.40;;;;;;;0.10;100.00;97183.28;3191361;23;20078;-92
2024/01/16 02:54:17;;;;;;;2.17;1.65;;;;;;;0.28;100.00;97185.72;3191210;23;20539;-93
2024/01/16 02:55:34;;;;;;;5.55;2.13;;;;;;;0.14;100.00;97179.81;3206326;23;20016;-92
2024/01/16 02:56:50;;;;;;;2.28;1.48;;;;;;;0.15;100.00;97193.56;3200352;23;20012;-93
2024/01/16 02:58:05;;;;;;;5.07;2.08;;;;;;;0.08;100.00;97185.88;3222520;22;20439;-94
2024/01/16 02:59:21;;;;;;;2.13;1.45;;;;;;;0.20;100.00;97191.81;3209924;23;20009;-92
2024/01/16 03:00:37;;;;;;;3.33;2.35;;;;;;;0.05;100.00;97191.03;3191192;23;20009;-92
2024/01/16 03:01:53;;;;;;;3.65;2.28;;;;;;;0.04;100.00;97188.47;3224101;22;20061;-93
2024/01/16 03:03:11;;;;;;;4.80;2.53;;;;;;;0.09;100.00;97191.88;3226260;23;20035;-93
2024/01/16 03:04:28;;;;;;;3.30;1.90;;;;;;;0.11;100.00;97198.72;3202240;23;20024;-94
2024/01/16 03:05:46;;;;;;;2.60;1.88;;;;;;;0.14;100.00;97190.13;3190819;23;20051;-93
2024/01/16 03:07:02;;;;;;;3.65;1.88;;;;;;;0.19;100.00;97187.53;3192063;23;20008;-93
2024/01/16 03:08:19;;;;;;;1.65;1.45;;;;;;;0.20;100.00;97202.94;3223891;22;20053;-93
2024/01/16 03:09:34;;;;;;;4.45;2.05;;;;;;;0.16;100.00;97195.28;3225168;23;20012;-92
2024/01/16 03:10:50;;;;;;;2.92;1.45;;;;;;;0.20;100.00;97204.69;3235334;22;20007;-94
2024/01/16 03:12:07;;;;;;;6.25;1.92;;;;;;;0.08;100.00;97196.16;3210277;23;20096;-93
2024/01/16 03:13:22;;;;;;;5.28;1.73;;;;;;;0.18;100.00;97199.53;3213149;22;20094;-91
2024/01/16 03:14:38;;;;;;;3.45;2.15;;;;;;;0.12;100.00;97194.44;3232302;22;20016;-92
2024/01/16 03:15:55;;;;;;;2.58;1.92;;;;;;;0.10;100.00;97202.16;3232150;22;20086;-93
2024/01/16 03:17:11;;;;;;;2.63;1.98;;;;;;;-0.01;100.00;97201.34;3215919;23;20020;-94
2024/01/16 03:18:27;;;;;;;1.85;1.02;;;;;;;0.04;100.00;97214.19;3208271;23;20087;-93
2024/01/16 03:19:43;;;;;;;9.10;1.90;;;;;;;-0.07;100.00;97216.84;3206553;23;20020;-93
2024/01/16 03:20:59;;;;;;;2.95;1.42;;;;;;;-0.05;100.00;97207.38;3207438;23;20011;-93
2024/01/16 03:22:15;;;;;;;2.30;1.55;;;;;;;-0.16;100.00;97215.16;3206246;23;20440;-92
2024/01/16 03:23:31;;;;;;;3.47;2.22;;;;;;;-0.21;100.00;97215.19;3206568;23;20012;-94
2024/01/16 03:24:48;;;;;;;2.20;1.50;;;;;;;-0.01;100.00;97216.78;3237549;22;20022;-94
2024/01/16 03:26:04;;;;;;;2.40;1.67;;;;;;;-0.03;100.00;97206.53;3225362;23;20008;-93
2024/01/16 03:27:20;;;;;;;1.98;1.40;;;;;;;0.09;100.00;97215.88;3222406;22;20471;-94
2024/01/16 03:28:37;;;;;;;3.90;2.05;;;;;;;-0.17;100.00;97214.31;3216077;23;20019;-94
2024/01/16 03:29:53;;;;;;;2.92;2.10;;;;;;;-0.12;100.00;97210.88;3223587;22;20015;-92
2024/01/16 03:31:16;;;;;;;3.60;1.98;;;;;;;-0.07;100.00;97217.72;3245769;22;20003;-93
2024/01/16 03:32:33;;;;;;;3.95;2.50;;;;;;;-0.14;100.00;97226.31;3225531;23;20488;-93
2024/01/16 03:33:50;;;;;;;4.20;1.73;;;;;;;-0.16;100.00;97223.72;3223381;22;20000;-94
2024/01/16 03:35:07;;;;;;;4.35;1.98;;;;;;;-0.07;100.00;97221.97;3215911;23;20008;-95
2024/01/16 03:36:23;;;;;;;1.50;0.90;;;;;;;0.12;100.00;97225.31;3222884;22;20104;-94
2024/01/16 03:37:39;;;;;;;2.63;1.95;;;;;;;-0.13;100.00;97229.75;3232383;22;20007;-93
2024/01/16 03:39:01;;;;;;;;;;;;;;;0.11;100.00;97227.03;3234195;22;20114;-94
2024/01/16 03:40:17;;;;;;;2.70;1.20;;;;;;;0.09;100.00;97231.31;3231319;22;19963;-93
2024/01/16 03:41:33;;;;;;;4.63;2.40;;;;;;;-0.16;100.00;97223.72;3232074;22;20012;-94
2024/01/16 03:42:49;;;;;;;2.42;1.88;;;;;;;0.01;100.00;97234.81;3225464;23;20012;-92
2024/01/16 03:44:05;;;;;;;2.28;1.50;;;;;;;-0.07;100.00;97229.69;3206928;23;20023;-93
2024/01/16 03:45:21;;;;;;;2.78;1.48;;;;;;;-0.03;100.00;97232.25;3230736;22;20011;-94
2024/01/16 03:46:37;;;;;;;1.52;1.20;;;;;;;0.02;100.00;97229.66;3215861;23;20012;-93
2024/01/16 03:47:53;;;;;;;2.25;1.50;;;;;;;-0.11;100.00;97225.44;3222113;22;20015;-93
2024/01/16 03:49:09;;;;;;;3.38;1.58;;;;;;;-0.06;100.00;97234.84;3216445;23;20094;-93
2024/01/16 03:50:25;;;;;;;4.25;1.90;;;;;;;-0.03;100.00;97237.41;3205991;23;20012;-93
2024/01/16 03:51:46;;;;;;;2.83;1.27;;;;;;;-0.02;100.00;97231.41;3222528;22;20012;-92
2024/01/16 03:53:03;;;;;;;3.50;1.83;;;;;;;-0.12;100.00;97229.72;3216981;23;20460;-93
2024/01/16 03:54:21;;;;;;;2.95;1.83;;;;;;;-0.03;100.00;97233.97;3208989;23;20046;-93
2024/01/16 03:55:37;;;;;;;3.25;1.20;;;;;;;0.12;100.00;97230.47;3215819;23;20018;-93
2024/01/16 03:56:53;;;;;;;2.40;1.33;;;;;;;0.23;100.00;97231.25;3237338;22;20064;-92
2024/01/16 03:58:09;;;;;;;2.00;1.35;;;;;;;0.10;100.00;97239.91;3224935;23;20249;-93
2024/01/16 03:59:25;;;;;;;1.05;0.90;;;;;;;0.17;100.00;97238.16;3205808;23;20016;-93
2024/01/16 04:00:41;;;;;;;1.70;1.08;;;;;;;0.16;100.00;97241.59;3207170;23;20087;-93
2024/01/16 04:01:57;;;;;;;5.55;1.90;;;;;;;-0.07;100.00;97235.72;3222369;22;20012;-95
2024/01/16 04:03:13;;;;;;;1.60;1.08;;;;;;;0.11;100.00;97239.88;3215999;23;20015;-94
2024/01/16 04:04:29;;;;;;;4.10;2.28;;;;;;;-0.07;100.00;97246.00;3221727;22;20011;-93
2024/01/16 04:05:48;;;;;;;2.80;1.45;;;;;;;-0.01;100.00;97243.41;3241648;22;20031;-93
2024/01/16 04:07:04;;;;;;;2.90;1.17;;;;;;;0.16;100.00;97246.75;3231922;22;20078;-94
2024/01/16 04:08:20;;;;;;;6.32;2.20;;;;;;;-0.04;100.00;97242.53;3231632;22;20057;-94
2024/01/16 04:09:37;;;;;;;3.15;1.42;;;;;;;-0.03;100.00;97239.09;3232246;22;20035;-94
2024/01/16 04:10:55;;;;;;;1.75;1.30;;;;;;;0.02;100.00;97239.09;3216219;23;20074;-93
2024/01/16 04:12:11;;;;;;;2.17;1.60;;;;;;;-0.01;100.00;97243.41;3222998;22;20313;-94
2024/01/16 04:13:27;;;;;;;2.60;1.70;;;;;;;-0.08;100.00;97239.13;3232458;22;20015;-92
2024/01/16 04:14:44;;;;;;;3.00;1.23;;;;;;;-0.03;100.00;97241.69;3231984;22;20053;-93
2024/01/16 04:16:00;;;;;;;1.58;1.23;;;;;;;-0.02;100.00;97241.69;3217274;23;20015;-95
2024/01/16 04:17:17;;;;;;;3.25;1.85;;;;;;;-0.13;100.00;97228.00;3222240;22;20011;-93
2024/01/16 04:18:38;;;;;;;3.65;2.20;;;;;;;-0.16;100.00;97244.31;3232718;22;20076;-94
2024/01/16 04:19:54;;;;;;;3.30;2.15;;;;;;;-0.14;100.00;97252.03;3217515;23;20012;-93
2024/01/16 04:21:10;;;;;;;4.38;2.22;;;;;;;-0.05;100.00;97252.00;3222009;22;20024;-93
2024/01/16 04:22:28;;;;;;;2.08;1.52;;;;;;;0.00;100.00;97244.25;3242108;22;20069;-94
2024/01/16 04:23:44;;;;;;;3.15;1.30;;;;;;;0.09;100.00;97248.50;3225663;23;20016;-93
2024/01/16 04:25:04;;;;;;;3.25;1.63;;;;;;;0.02;100.00;97247.69;3207929;23;20054;-93
2024/01/16 04:26:21;;;;;;;4.25;1.67;;;;;;;-0.03;100.00;97242.56;3208615;23;20061;-92
2024/01/16 04:27:37;;;;;;;1.27;0.93;;;;;;;0.15;100.00;97240.72;3207119;23;20383;-93
2024/01/16 04:28:53;;;;;;;5.25;2.60;;;;;;;-0.17;100.00;97239.19;3232494;22;20072;-93
2024/01/16 04:30:09;;;;;;;9.73;2.17;;;;;;;-0.04;100.00;97243.41;3241208;22;20351;-93
2024/01/16 04:31:25;;;;;;;4.55;2.38;;;;;;;-0.15;100.00;97252.91;3232136;22;20060;-93
2024/01/16 04:32:41;;;;;;;3.63;2.20;;;;;;;-0.18;100.00;97235.75;3232060;22;20008;-93
2024/01/16 04:33:57;;;;;;;5.78;2.30;;;;;;;-0.11;100.00;97254.59;3216130;23;20070;-92
2024/01/16 04:35:13;;;;;;;3.92;2.17;;;;;;;-0.13;100.00;97253.75;3200795;23;20467;-93
2024/01/16 04:36:29;;;;;;;2.95;1.48;;;;;;;0.08;100.00;97255.34;3221812;22;20004;-91
2024/01/16 04:37:45;;;;;;;2.75;1.58;;;;;;;0.02;100.00;97257.97;3231978;22;20011;-93
2024/01/16 04:39:03;;;;;;;4.40;2.03;;;;;;;0.09;100.00;97257.06;3215125;23;20065;-94
2024/01/16 04:40:19;;;;;;;4.55;2.00;;;;;;;-0.17;100.00;97258.03;3224601;22;20003;-93
2024/01/16 04:41:35;;;;;;;4.93;2.30;;;;;;;-0.26;100.00;97268.38;3215375;23;20012;-93
2024/01/16 04:42:51;;;;;;;5.97;2.63;;;;;;;-0.24;100.00;97268.34;3226179;22;20007;-93
2024/01/16 04:44:07;;;;;;;2.30;1.45;;;;;;;-0.19;100.00;97270.06;3215558;23;20043;-93
2024/01/16 04:45:23;;;;;;;3.72;2.03;;;;;;;-0.17;100.00;97277.78;3223116;22;20012;-93
2024/01/16 04:46:39;;;;;;;6.43;1.90;;;;;;;-0.05;100.00;97274.28;3214979;23;20066;-93
2024/01/16 04:47:55;;;;;;;4.32;2.00;;;;;;;-0.20;100.00;97288.94;3205665;23;20110;-92
2024/01/16 04:49:11;;;;;;;3.35;1.70;;;;;;;-0.21;100.00;97287.22;3221520;22;20066;-93
2024/01/16 04:50:31;;;;;;;5.10;2.17;;;;;;;-0.30;100.00;97287.25;3215323;23;20486;-93
2024/01/16 04:51:47;;;;;;;4.15;1.98;;;;;;;-0.27;100.00;97284.69;3223073;22;20035;-93
2024/01/16 04:53:04;;;;;;;3.35;2.00;;;;;;;-0.24;100.00;97287.22;3215866;23;20020;-92
2024/01/16 04:54:20;;;;;;;2.88;1.75;;;;;;;-0.11;100.00;97282.88;3221588;22;20003;-94
2024/01/16 04:55:36;;;;;;;2.10;0.90;;;;;;;0.02;100.00;97283.69;3215867;23;20012;-94
2024/01/16 04:56:51;;;;;;;1.10;1.00;;;;;;;0.07;100.00;97291.38;3206451;23;20020;-93
2024/01/16 04:58:07;;;;;;;1.42;1.00;;;;;;;-0.03;100.00;97285.44;3222542;22;20019;-93
2024/01/16 04:59:23;;;;;;;3.92;1.90;;;;;;;-0.15;100.00;97288.91;3215947;23;20000;-93
2024/01/16 05:00:39;;;;;;;2.58;1.58;;;;;;;0.12;100.00;97289.66;3221539;22;20015;-92
2024/01/16 05:01:56;;;;;;;1.58;1.42;;;;;;;0.03;100.00;97293.13;3216421;23;20012;-93
2024/01/16 05:03:12;;;;;;;3.22;1.92;;;;;;;0.01;100.00;97294.88;3222053;22;20011;-92
2024/01/16 05:04:28;;;;;;;4.72;2.40;;;;;;;-0.06;100.00;97300.88;3215052;23;20012;-94
2024/01/16 05:05:44;;;;;;;3.20;2.17;;;;;;;-0.03;100.00;97294.00;3216781;23;20512;-93
2024/01/16 05:07:00;;;;;;;3.42;2.35;;;;;;;-0.09;100.00;97306.88;3231068;22;20011;-92
2024/01/16 05:08:16;;;;;;;4.68;2.08;;;;;;;-0.01;100.00;97305.16;3232457;22;20041;-92
2024/01/16 05:09:33;;;;;;;4.53;2.30;;;;;;;-0.09;100.00;97300.91;3217028;23;20099;-95
2024/01/16 05:10:50;;;;;;;2.75;1.77;;;;;;;0.04;100.00;97312.84;3223051;22;20011;-92
2024/01/16 05:12:06;;;;;;;1.70;1.60;;;;;;;0.15;100.00;97306.81;3232094;22;20011;-93
2024/01/16 05:13:22;;;;;;;3.90;1.35;;;;;;;0.10;100.00;97301.69;3242716;22;20019;-92
2024/01/16 05:14:38;;;;;;;4.22;1.83;;;;;;;0.16;100.00;97300.81;3226776;23;20012;-94
2024/01/16 05:15:54;;;;;;;2.80;1.65;;;;;;;0.02;100.00;97303.41;3223519;22;20012;-94
2024/01/16 05:17:10;;;;;;;4.35;1.77;;;;;;;0.21;100.00;97299.91;3217466;23;20050;-92
2024/01/16 05:18:26;;;;;;;1.42;1.20;;;;;;;0.28;100.00;97305.88;3233378;22;20010;-93
2024/01/16 05:19:42;;;;;;;3.30;1.90;;;;;;;0.06;100.00;97302.53;3242757;22;20448;-93
2024/01/16 05:20:58;;;;;;;3.85;1.75;;;;;;;0.07;100.00;97302.53;3215750;23;20079;-93
2024/01/16 05:22:15;;;;;;;3.70;2.13;;;;;;;-0.03;100.00;97303.44;3222944;22;20077;-94
2024/01/16 05:23:31;;;;;;;4.45;1.95;;;;;;;0.02;100.00;97298.28;3245199;22;20035;-93
2024/01/16 05:24:47;;;;;;;4.10;2.17;;;;;;;0.04;100.00;97302.56;3243032;22;20012;-93
2024/01/16 05:26:04;;;;;;;5.18;2.13;;;;;;;-0.13;100.00;97304.34;3216528;23;20008;-95
2024/01/16 05:27:20;;;;;;;2.28;1.63;;;;;;;0.19;100.00;97308.50;3234229;22;20004;-93
2024/01/16 05:28:36;;;;;;;3.88;1.75;;;;;;;-0.07;100.00;97317.19;3225397;23;20054;-94
2024/01/16 05:29:52;;;;;;;5.75;2.17;;;;;;;-0.13;100.00;97315.47;3207607;23;20012;-95
2024/01/16 05:31:08;;;;;;;3.55;1.92;;;;;;;-0.09;100.00;97308.63;3222709;22;20022;-93
2024/01/16 05:32:29;;;;;;;3.55;1.63;;;;;;;-0.13;100.00;97312.06;3219098;23;20615;-93
2024/01/16 05:33:46;;;;;;;2.50;1.67;;;;;;;-0.06;100.00;97322.34;3225150;22;20069;-92
2024/01/16 05:35:02;;;;;;;2.88;1.58;;;;;;;0.00;100.00;97311.16;3233367;22;20010;-94
2024/01/16 05:36:19;;;;;;;3.90;2.30;;;;;;;-0.23;100.00;97319.81;3232235;22;20026;-94
2024/01/16 05:37:35;;;;;;;4.30;2.20;;;;;;;-0.09;100.00;97324.91;3232758;22;19999;-94
2024/01/16 05:38:53;;;;;;;1.60;1.17;;;;;;;0.04;100.00;97330.00;3216355;23;20016;-94
2024/01/16 05:40:09;;;;;;;4.95;2.50;;;;;;;-0.11;100.00;97318.91;3224304;22;20017;-93
2024/01/16 05:41:26;;;;;;;5.10;2.17;;;;;;;0.01;100.00;97330.88;3215776;23;20051;-92
2024/01/16 05:42:42;;;;;;;2.72;1.70;;;;;;;0.05;100.00;97324.00;3223661;22;20123;-93
2024/01/16 05:44:00;;;;;;;2.53;1.15;;;;;;;0.10;100.00;97325.69;3232105;22;20004;-92
2024/01/16 05:45:17;;;;;;;3.75;1.77;;;;;;;-0.07;100.00;97317.19;3233553;22;20012;-93
2024/01/16 05:46:33;;;;;;;4.32;2.00;;;;;;;0.00;100.00;97331.75;3232195;22;20007;-94
2024/01/16 05:47:50;;;;;;;2.13;1.55;;;;;;;0.11;100.00;97334.28;3233314;22;20131;-93
2024/01/16 05:49:06;;;;;;;6.72;1.55;;;;;;;0.22;100.00;97336.78;3232031;22;20031;-94
2024/01/16 05:50:22;;;;;;;1.30;0.77;;;;;;;0.07;100.00;97336.00;3233068;22;20103;-93
2024/01/16 05:51:38;;;;;;;2.83;1.75;;;;;;;-0.01;100.00;97335.16;3217351;23;20436;-94
2024/01/16 05:52:54;;;;;;;3.88;2.08;;;;;;;-0.06;100.00;97334.31;3223875;22;20041;-95
2024/01/16 05:54:10;;;;;;;4.93;2.17;;;;;;;-0.14;100.00;97339.50;3232908;22;20010;-94
2024/01/16 05:55:26;;;;;;;3.17;1.65;;;;;;;0.04;100.00;97346.31;3216090;23;20016;-93
2024/01/16 05:56:42;;;;;;;2.22;1.50;;;;;;;0.11;100.00;97331.69;3234409;22;20003;-95
2024/01/16 05:58:01;;;;;;;1.73;1.42;;;;;;;0.09;100.00;97343.72;3242059;22;20016;-92
2024/01/16 05:59:17;;;;;;;2.97;1.55;;;;;;;0.03;100.00;97339.47;3218147;23;20038;-94
2024/01/16 06:00:34;;;;;;;2.97;1.35;;;;;;;0.14;100.00;97347.13;3223316;22;20008;-93
2024/01/16 06:01:50;;;;;;;6.72;1.80;;;;;;;0.08;100.00;97345.44;3216788;23;20020;-95
2024/01/16 06:03:06;;;;;;;4.50;2.28;;;;;;;-0.01;100.00;97345.44;3223247;22;20183;-94
2024/01/16 06:04:22;;;;;;;4.20;2.08;;;;;;;-0.03;100.00;97337.75;3217439;23;20008;-94
2024/01/16 06:05:38;;;;;;;2.47;1.42;;;;;;;0.10;100.00;97337.72;3223118;22;20122;-92
2024/01/16 06:06:55;;;;;;;3.08;1.80;;;;;;;-0.03;100.00;97335.19;3220153;23;20020;-93
2024/01/16 06:08:12;;;;;;;2.88;1.60;;;;;;;0.15;100.00;97346.25;3217634;23;20039;-94
2024/01/16 06:09:30;;;;;;;4.38;2.67;;;;;;;-0.04;100.00;97338.63;3225755;22;20014;-89
2024/01/16 06:10:47;;;;;;;3.67;2.00;;;;;;;-0.11;100.00;97336.91;3214219;23;20016;-89
2024/01/16 06:12:03;;;;;;;4.22;1.90;;;;;;;-0.13;100.00;97341.22;3223552;22;20022;-89
2024/01/16 06:13:20;;;;;;;4.60;1.88;;;;;;;-0.05;100.00;97343.75;3232013;22;20019;-89
2024/01/16 06:14:36;;;;;;;6.38;1.73;;;;;;;-0.06;100.00;97347.19;3216037;23;20027;-89
2024/01/16 06:15:52;;;;;;;3.95;2.47;;;;;;;-0.05;100.00;97360.06;3206108;23;20042;-89
2024/01/16 06:17:08;;;;;;;6.28;2.53;;;;;;;-0.06;100.00;97342.06;3221787;22;20012;-88
2024/01/16 06:18:24;;;;;;;3.00;1.90;;;;;;;-0.04;100.00;97345.47;3216146;23;20082;-89
2024/01/16 06:19:40;;;;;;;3.00;1.67;;;;;;;0.04;100.00;97351.47;3221491;22;20436;-88
2024/01/16 06:20:56;;;;;;;3.97;1.80;;;;;;;0.03;100.00;97352.31;3231789;22;20116;-89
2024/01/16 06:22:12;;;;;;;5.50;1.98;;;;;;;0.10;100.00;97361.72;3215773;23;20008;-88
2024/01/16 06:23:28;;;;;;;5.15;1.63;;;;;;;0.02;100.00;97366.06;3206637;23;20012;-89
2024/01/16 06:24:44;;;;;;;2.10;1.55;;;;;;;0.07;100.00;97356.59;3222675;22;20244;-88
2024/01/16 06:26:00;;;;;;;4.90;2.20;;;;;;;-0.04;100.00;97361.78;3230987;22;20914;-90
2024/01/16 06:27:18;;;;;;;2.47;1.42;;;;;;;-0.06;100.00;97365.22;3216001;23;20012;-89
2024/01/16 06:28:34;;;;;;;3.88;2.33;;;;;;;-0.12;100.00;97355.78;3207270;23;20044;-89
2024/01/16 06:29:51;;;;;;;3.28;1.83;;;;;;;0.03;100.00;97360.03;3223027;22;20071;-88